Time;durP1;ratioP1;P1;durP2;ratioP2;P2;SDS_P1;SDS_P2;PMS_P1;PMS_P2;Temp;Humidity;BMP_temperature;BMP_pressure;BME280_temperature;BME280_humidity;BME280_pressure;Samples;Min_cycle;Max_cycle;Signal;HPM_P1;HPM_P2
2022/04/22 00:00:22;;;;;;;;;10.33;9.00;;;;;15.59;43.93;99783.66;5074210;27;46849;-59
2022/04/22 00:02:47;;;;;;;;;9.00;6.33;;;;;15.57;43.99;99777.56;5073057;28;45775;-58
2022/04/22 00:05:13;;;;;;;;;9.33;9.33;;;;;15.60;43.83;99776.47;5073453;27;45881;-58
2022/04/22 00:07:38;;;;;;;;;8.33;8.33;;;;;15.56;44.29;99777.69;5074821;27;45798;-58
2022/04/22 00:10:05;;;;;;;;;9.00;6.00;;;;;15.49;44.46;99761.31;5070196;28;47119;-59
2022/04/22 00:12:31;;;;;;;;;8.67;8.67;;;;;15.57;44.87;99779.41;5072433;27;45469;-58
2022/04/22 00:14:56;;;;;;;;;9.00;9.00;;;;;15.51;44.45;99769.25;5070494;27;45538;-58
2022/04/22 00:17:22;;;;;;;;;8.67;8.33;;;;;15.53;44.47;99777.97;5074409;27;45594;-58
2022/04/22 00:19:47;;;;;;;;;11.33;8.33;;;;;15.46;44.76;99772.31;5072104;27;46112;-59
2022/04/22 00:22:12;;;;;;;;;10.33;7.67;;;;;15.46;44.48;99766.09;5061866;27;45667;-62
2022/04/22 00:24:38;;;;;;;;;9.67;9.67;;;;;15.44;44.89;99776.97;5069584;27;45529;-59
2022/04/22 00:27:03;;;;;;;;;9.00;9.00;;;;;15.32;44.84;99759.28;5072101;27;45765;-60
2022/04/22 00:29:29;;;;;;;;;10.33;7.33;;;;;15.35;45.08;99765.22;5071362;27;45725;-59
2022/04/22 00:31:54;;;;;;;;;8.67;8.67;;;;;15.33;44.91;99771.69;5070879;27;45480;-59
2022/04/22 00:34:22;;;;;;;;;12.00;7.33;;;;;15.29;45.74;99765.78;5070365;28;45206;-58
2022/04/22 00:36:48;;;;;;;;;12.00;10.00;;;;;15.24;45.54;99772.53;5073985;27;45643;-59
2022/04/22 00:39:14;;;;;;;;;7.67;7.67;;;;;15.22;46.00;99775.31;5074595;27;46503;-58
2022/04/22 00:41:39;;;;;;;;;9.00;9.00;;;;;15.20;46.06;99769.25;5076423;27;45582;-59
2022/04/22 00:44:04;;;;;;;;;8.33;8.00;;;;;15.19;45.81;99769.41;5078963;27;45306;-57
2022/04/22 00:46:30;;;;;;;;;9.67;8.33;;;;;15.20;45.77;99769.25;5078878;27;45632;-57
2022/04/22 00:48:55;;;;;;;;;11.00;10.00;;;;;15.23;45.46;99777.03;5077891;27;46158;-59
2022/04/22 00:51:22;;;;;;;;;11.67;10.67;;;;;15.12;46.47;99763.75;5076819;27;45538;-58
2022/04/22 00:53:49;;;;;;;;;8.67;8.67;;;;;15.03;46.36;99767.22;5077712;27;45402;-60
2022/04/22 00:56:15;;;;;;;;;9.67;9.00;;;;;15.14;46.50;99767.13;5064155;28;45347;-58
2022/04/22 00:58:43;;;;;;;;;9.33;9.33;;;;;15.18;46.13;99768.56;5089244;27;45551;-58
2022/04/22 01:01:09;;;;;;;;;9.67;8.00;;;;;15.13;45.98;99773.47;5072164;28;45455;-59
2022/04/22 01:03:34;;;;;;;;;10.67;9.00;;;;;15.08;46.31;99756.94;5077688;27;45436;-58
2022/04/22 01:11:50;;;;;;;;;7.00;7.00;;;;;15.05;46.42;99760.75;5058311;28;45786;-58
2022/04/22 01:14:15;;;;;;;;;8.33;8.33;;;;;15.05;46.85;99757.22;5070494;27;45415;-60
2022/04/22 01:16:40;;;;;;;;;10.67;7.00;;;;;15.02;46.58;99757.50;5076362;28;45538;-58
2022/04/22 01:19:06;;;;;;;;;11.00;9.67;;;;;14.98;46.65;99751.56;5076642;27;45450;-60
2022/04/22 01:21:31;;;;;;;;;10.00;10.00;;;;;14.89;47.11;99759.56;5066693;27;45509;-58
2022/04/22 01:23:56;;;;;;;;;9.00;9.00;;;;;14.78;47.66;99752.47;5076246;27;45411;-60
2022/04/22 01:26:22;;;;;;;;;11.00;9.67;;;;;14.65;47.95;99741.97;5091890;27;45678;-58
2022/04/22 01:28:47;;;;;;;;;8.00;8.00;;;;;14.75;48.07;99750.91;5074655;27;46170;-59
2022/04/22 01:31:13;;;;;;;;;9.00;9.00;;;;;14.69;47.69;99743.38;5068643;27;46026;-58
2022/04/22 01:33:38;;;;;;;;;9.67;9.00;;;;;14.68;47.74;99736.34;5071532;28;45570;-57
2022/04/22 01:36:04;;;;;;;;;8.33;7.33;;;;;14.64;48.52;99747.44;5075176;27;45402;-57
2022/04/22 01:38:30;;;;;;;;;9.00;9.00;;;;;14.58;48.27;99748.81;5074055;27;47760;-58
2022/04/22 01:40:55;;;;;;;;;8.67;8.67;;;;;14.58;47.98;99738.09;5075618;27;45425;-60
2022/04/22 01:43:21;;;;;;;;;8.67;7.33;;;;;14.60;47.82;99736.19;5075923;27;45464;-59
2022/04/22 01:45:47;;;;;;;;;10.00;8.00;;;;;14.55;48.31;99730.34;5076355;27;45535;-60
2022/04/22 01:48:12;;;;;;;;;10.33;10.33;;;;;14.55;48.40;99735.69;5075225;27;45991;-59
2022/04/22 01:50:38;;;;;;;;;10.67;10.00;;;;;14.37;48.41;99734.59;5075562;28;45453;-60
2022/04/22 01:53:06;;;;;;;;;9.00;7.67;;;;;14.33;49.42;99735.84;5062679;27;47122;-60
2022/04/22 01:55:32;;;;;;;;;12.33;9.00;;;;;14.20;48.87;99732.50;5076956;27;45365;-59
2022/04/22 01:57:58;;;;;;;;;8.00;8.00;;;;;14.21;49.01;99734.19;5077094;27;45508;-60
2022/04/22 02:00:23;;;;;;;;;10.33;10.00;;;;;14.17;49.35;99737.09;5076551;27;45411;-58
2022/04/22 02:02:49;;;;;;;;;10.33;10.33;;;;;14.16;48.79;99737.25;5076494;27;45228;-59
2022/04/22 02:05:15;;;;;;;;;13.75;9.75;;;;;14.20;49.05;99737.84;5076399;27;45650;-61
2022/04/22 02:07:41;;;;;;;;;7.67;7.67;;;;;14.10;49.20;99717.22;5074972;27;45821;-57
2022/04/22 02:10:08;;;;;;;;;9.00;9.00;;;;;14.11;49.31;99734.97;5076071;27;45499;-58
2022/04/22 02:12:33;;;;;;;;;8.75;8.75;;;;;14.03;49.64;99721.38;5074744;27;45473;-58
2022/04/22 02:14:59;;;;;;;;;10.67;9.00;;;;;14.09;49.06;99728.06;5076347;27;45626;-59
2022/04/22 02:17:25;;;;;;;;;10.00;10.00;;;;;13.92;49.08;99696.53;5075760;27;46223;-59
2022/04/22 02:19:50;;;;;;;;;8.33;8.00;;;;;14.06;49.50;99726.50;5076059;27;45854;-58
2022/04/22 02:22:16;;;;;;;;;10.00;7.00;;;;;13.95;49.84;99713.19;5071457;27;46517;-59
2022/04/22 02:24:41;;;;;;;;;10.00;9.00;;;;;13.95;49.31;99707.00;5062066;28;45437;-59
2022/04/22 02:29:50;;;;;;;;;10.00;9.75;;;;;13.93;49.27;99706.25;5071807;27;45662;-57
2022/04/22 02:32:15;;;;;;;;;8.25;7.50;;;;;13.98;50.22;99712.91;5065579;27;45551;-58
2022/04/22 02:34:41;;;;;;;;;10.50;9.50;;;;;13.97;49.61;99708.56;5061723;28;45715;-59
2022/04/22 02:37:06;;;;;;;;;10.00;8.25;;;;;13.99;49.92;99713.75;5074165;27;45430;-57
2022/04/22 02:39:32;;;;;;;;;10.67;10.00;;;;;13.94;49.77;99702.63;5076124;27;45265;-58
2022/04/22 02:47:45;;;;;;;;;9.67;9.67;;;;;13.78;50.55;99706.56;5032174;28;45558;-61
2022/04/22 02:50:10;;;;;;;;;12.67;9.33;;;;;13.81;50.21;99708.16;5058058;27;45558;-60
2022/04/22 02:52:36;;;;;;;;;9.00;9.00;;;;;13.82;50.20;99708.00;5074215;27;45456;-61
2022/04/22 02:55:01;;;;;;;;;10.00;8.67;;;;;13.74;49.90;99701.59;5075612;28;45449;-59
2022/04/22 02:57:27;;;;;;;;;9.67;9.67;;;;;13.81;49.85;99706.31;5076660;27;45520;-59
2022/04/22 02:59:53;;;;;;;;;10.25;9.50;;;;;13.69;49.74;99691.31;5053908;28;45428;-60
2022/04/22 03:02:19;;;;;;;;;9.75;9.75;;;;;13.71;49.70;99693.84;5073488;27;45523;-59
2022/04/22 03:04:44;;;;;;;;;14.00;11.00;;;;;13.71;49.83;99700.03;5074674;27;45464;-58
2022/04/22 03:07:10;;;;;;;;;9.50;9.50;;;;;13.69;49.96;99696.66;5074157;27;45357;-59
2022/04/22 03:09:36;;;;;;;;;9.00;9.00;;;;;13.68;50.42;99694.09;5075731;28;45211;-59
2022/04/22 03:12:01;;;;;;;;;10.25;8.50;;;;;13.66;50.17;99699.56;5074977;28;45583;-59
2022/04/22 03:14:29;;;;;;;;;10.00;10.00;;;;;13.66;50.46;99696.88;5074330;28;45463;-61
2022/04/22 03:16:54;;;;;;;;;9.67;9.67;;;;;13.64;50.25;99689.97;5076329;27;45674;-58
2022/04/22 03:19:20;;;;;;;;;8.00;8.00;;;;;13.55;50.48;99694.28;5070417;27;45472;-59
2022/04/22 03:21:45;;;;;;;;;11.00;11.00;;;;;13.48;50.86;99693.91;5074280;27;45444;-60
2022/04/22 03:24:11;;;;;;;;;13.67;10.00;;;;;13.44;50.92;99691.63;5072342;27;45459;-59
2022/04/22 03:26:36;;;;;;;;;13.67;10.67;;;;;13.41;50.98;99698.09;5073578;27;45943;-60
2022/04/22 03:29:02;;;;;;;;;12.67;12.67;;;;;13.43;50.90;99701.47;5074256;27;45415;-59
2022/04/22 03:31:27;;;;;;;;;11.33;10.00;;;;;13.39;50.97;99693.81;5072983;28;45417;-59
2022/04/22 03:33:53;;;;;;;;;12.67;10.00;;;;;13.35;50.96;99687.03;5066410;27;45381;-59
2022/04/22 03:36:18;;;;;;;;;15.25;12.00;;;;;13.37;50.97;99685.94;5068276;27;45936;-60
2022/04/22 03:38:44;;;;;;;;;11.00;10.75;;;;;13.32;51.48;99685.47;5073188;28;45478;-59
2022/04/22 03:41:12;;;;;;;;;11.00;9.00;;;;;13.26;51.08;99672.59;5073677;28;45537;-59
2022/04/22 03:43:39;;;;;;;;;10.00;9.00;;;;;13.28;51.22;99676.00;5073979;27;45611;-60
2022/04/22 03:46:05;;;;;;;;;9.75;9.75;;;;;13.29;51.04;99683.06;5067091;27;46190;-57
2022/04/22 03:48:30;;;;;;;;;11.50;11.50;;;;;13.25;51.68;99681.59;5072975;28;45621;-62
2022/04/22 03:50:55;;;;;;;;;9.50;9.50;;;;;13.16;52.10;99682.34;5072291;27;45470;-57
2022/04/22 03:53:21;;;;;;;;;14.25;11.25;;;;;13.08;51.64;99680.28;5076012;27;45571;-61
2022/04/22 03:55:47;;;;;;;;;15.75;15.00;;;;;13.02;51.84;99680.78;5071372;27;46156;-57
2022/04/22 03:58:12;;;;;;;;;12.75;10.00;;;;;12.91;52.35;99668.28;5063268;28;45476;-59
2022/04/22 04:00:45;;;;;;;;;15.25;12.25;;;;;12.99;52.34;99686.34;5071397;27;45476;-57
2022/04/22 04:03:15;;;;;;;;;10.75;10.75;;;;;12.95;52.79;99683.06;5075280;27;45755;-58
2022/04/22 04:05:49;;;;;;;;;10.25;10.25;;;;;12.91;52.71;99683.47;5089226;27;46806;-58
2022/04/22 04:08:17;;;;;;;;;16.50;13.75;;;;;12.88;52.51;99678.34;5074544;27;45493;-58
2022/04/22 04:16:11;;;;;;;;;13.25;10.00;;;;;12.71;53.70;99679.69;5073598;28;45559;-58
2022/04/22 04:18:38;;;;;;;;;13.00;12.00;;;;;12.65;52.98;99688.19;5077121;27;45269;-60
2022/04/22 04:23:53;;;;;;;;;15.50;13.75;;;;;12.67;52.95;99681.75;5077851;28;45450;-58
2022/04/22 04:26:21;;;;;;;;;10.50;10.50;;;;;12.67;53.25;99675.59;5081065;27;46009;-58
2022/04/22 04:28:49;;;;;;;;;8.75;8.75;;;;;12.67;53.14;99671.09;5077996;27;45387;-58
2022/04/22 04:31:15;;;;;;;;;16.00;12.75;;;;;12.63;53.02;99663.44;5074524;27;45491;-58
2022/04/22 04:33:42;;;;;;;;;14.75;13.50;;;;;12.67;53.35;99667.59;5093659;27;45633;-59
2022/04/22 04:36:09;;;;;;;;;21.00;13.00;;;;;12.66;53.37;99674.72;5074317;27;46972;-59
2022/04/22 04:38:36;;;;;;;;;14.75;13.75;;;;;12.65;53.35;99669.53;5076491;27;45517;-58
2022/04/22 04:41:02;;;;;;;;;16.25;12.75;;;;;12.57;53.29;99654.13;5070862;27;45536;-58
2022/04/22 04:43:28;;;;;;;;;16.25;15.25;;;;;12.63;53.67;99664.31;5077699;27;45170;-59
2022/04/22 04:45:53;;;;;;;;;15.25;12.75;;;;;12.56;53.51;99659.56;5066015;28;48206;-59
2022/04/22 04:48:19;;;;;;;;;13.25;13.25;;;;;12.59;53.69;99665.50;5064643;28;45894;-59
2022/04/22 04:50:51;;;;;;;;;19.00;13.00;;;;;12.58;53.85;99665.63;5076076;28;45542;-58
2022/04/22 04:53:17;;;;;;;;;12.75;12.75;;;;;12.63;53.84;99674.09;5076770;28;45291;-60
2022/04/22 04:55:43;;;;;;;;;15.25;14.00;;;;;12.60;53.88;99666.34;5074625;27;46932;-58
2022/04/22 04:58:09;;;;;;;;;12.75;11.25;;;;;12.57;53.76;99669.28;5073093;28;45890;-59
2022/04/22 05:00:35;;;;;;;;;10.50;10.50;;;;;12.54;53.61;99662.38;5074958;27;45460;-58
2022/04/22 05:03:00;;;;;;;;;12.75;12.50;;;;;12.56;53.74;99659.56;5077958;28;45632;-60
2022/04/22 05:05:26;;;;;;;;;15.00;13.75;;;;;12.58;53.61;99657.63;5076408;28;45562;-58
2022/04/22 05:07:57;;;;;;;;;12.50;12.25;;;;;12.51;53.53;99653.78;5070962;27;45475;-63
2022/04/22 05:10:33;;;;;;;;;13.50;11.50;;;;;12.56;54.06;99654.25;5075126;28;45532;-59
2022/04/22 05:12:59;;;;;;;;;16.75;13.25;;;;;12.51;54.10;99653.78;5065856;27;45347;-58
2022/04/22 05:15:26;;;;;;;;;18.00;12.25;;;;;12.53;53.97;99652.66;5090958;27;45456;-58
2022/04/22 05:17:54;;;;;;;;;17.75;15.00;;;;;12.55;54.00;99655.22;5073935;28;45516;-59
2022/04/22 05:20:20;;;;;;;;;13.00;13.00;;;;;12.60;54.32;99653.00;5089046;27;45342;-57
2022/04/22 05:22:47;;;;;;;;;16.00;14.75;;;;;12.48;54.09;99637.97;5057573;27;45308;-60
2022/04/22 05:25:14;;;;;;;;;12.75;12.75;;;;;12.62;54.06;99653.75;5064896;28;45934;-57
2022/04/22 05:27:40;;;;;;;;;16.50;14.75;;;;;12.62;53.73;99651.91;5075883;27;45547;-57
2022/04/22 05:32:52;;;;;;;;;14.50;13.75;;;;;12.51;54.51;99653.78;5077426;27;45517;-59
2022/04/22 05:35:20;;;;;;;;;16.25;13.50;;;;;12.45;54.45;99644.41;5073012;27;46252;-60
2022/04/22 05:37:45;;;;;;;;;14.75;14.75;;;;;12.49;54.17;99655.69;5074878;27;45246;-62
2022/04/22 05:40:12;;;;;;;;;12.75;12.75;;;;;12.42;54.77;99636.66;5076869;27;45426;-59
2022/04/22 05:42:38;;;;;;;;;18.00;18.00;;;;;12.50;54.70;99647.59;5077500;28;45757;-59
2022/04/22 05:45:08;;;;;;;;;14.00;14.00;;;;;12.49;54.43;99642.34;5076584;27;46103;-63
2022/04/22 05:47:35;;;;;;;;;15.25;15.25;;;;;12.56;54.89;99656.91;5074961;27;45440;-57
2022/04/22 05:50:01;;;;;;;;;18.00;15.00;;;;;12.60;54.42;99666.34;5062915;28;45408;-60
2022/04/22 05:52:27;;;;;;;;;13.25;13.25;;;;;12.61;54.46;99660.91;5075389;27;45698;-61
2022/04/22 05:54:54;;;;;;;;;20.75;18.50;;;;;12.45;54.38;99632.91;5087242;27;45471;-58
2022/04/22 05:57:19;;;;;;;;;19.75;14.50;;;;;12.59;54.92;99652.16;5077367;28;45420;-54
2022/04/22 05:59:46;;;;;;;;;18.75;14.00;;;;;12.62;54.52;99656.41;5077517;27;45348;-63
2022/04/22 06:02:14;;;;;;;;;18.00;14.75;;;;;12.71;54.48;99671.69;5071626;27;45435;-58
2022/04/22 06:04:39;;;;;;;;;19.25;14.25;;;;;12.71;54.75;99666.34;5089868;27;45564;-60
2022/04/22 06:07:04;;;;;;;;;19.50;17.50;;;;;12.63;54.84;99664.31;5077726;27;45531;-60
2022/04/22 06:12:14;;;;;;;;;18.00;13.50;;;;;12.59;55.04;99667.31;5075527;27;45716;-62
2022/04/22 06:14:40;;;;;;;;;12.00;10.50;;;;;12.61;54.94;99670.72;5072172;27;46308;-60
2022/04/22 06:17:05;;;;;;;;;23.00;18.00;;;;;12.69;55.08;99678.97;5071176;28;45592;-57
2022/04/22 06:19:31;;;;;;;;;21.75;15.75;;;;;12.68;54.73;99662.13;5075281;27;45647;-58
2022/04/22 06:21:57;;;;;;;;;15.50;14.50;;;;;12.80;54.98;99670.97;5076580;28;45533;-57
2022/04/22 06:24:22;;;;;;;;;19.75;16.50;;;;;12.83;55.11;99669.88;5074278;28;45524;-58
2022/04/22 06:26:48;;;;;;;;;21.25;20.00;;;;;12.70;55.16;99664.66;5073958;27;45377;-57
2022/04/22 06:29:14;;;;;;;;;17.00;15.75;;;;;12.78;54.93;99670.25;5074371;27;45493;-59
2022/04/22 06:31:40;;;;;;;;;18.00;16.75;;;;;12.82;54.63;99663.69;5057392;27;46025;-57
2022/04/22 06:34:05;;;;;;;;;19.25;15.25;;;;;12.82;54.38;99653.00;5075391;27;46250;-62
2022/04/22 06:36:32;;;;;;;;;21.75;19.25;;;;;12.92;53.98;99655.78;5077314;27;45606;-58
2022/04/22 06:38:58;;;;;;;;;18.50;17.00;;;;;12.98;54.73;99663.28;5077499;27;45443;-56
2022/04/22 06:46:56;;;;;;;;;25.25;25.25;;;;;13.13;53.87;99658.53;5069912;28;45440;-57
2022/04/22 06:49:23;;;;;;;;;21.25;19.75;;;;;13.04;53.98;99633.44;5071352;27;45485;-57
2022/04/22 06:51:50;;;;;;;;;25.50;18.50;;;;;13.20;53.53;99649.09;5072848;27;45600;-58
2022/04/22 06:54:15;;;;;;;;;20.00;15.25;;;;;13.27;53.80;99660.94;5066555;27;45299;-58
2022/04/22 06:56:42;;;;;;;;;20.00;14.50;;;;;13.24;53.70;99637.19;5073283;27;45437;-57
2022/04/22 06:59:08;;;;;;;;;14.75;14.75;;;;;13.37;53.11;99655.72;5064750;27;45461;-61
2022/04/22 07:01:36;;;;;;;;;18.25;15.00;;;;;13.40;52.74;99653.63;5069239;28;45514;-57
2022/04/22 07:04:02;;;;;;;;;18.00;16.50;;;;;13.42;53.36;99659.72;5074811;28;46717;-59
2022/04/22 07:06:28;;;;;;;;;15.50;14.00;;;;;13.42;53.27;99654.38;5074143;28;45675;-57
2022/04/22 07:08:54;;;;;;;;;15.00;15.00;;;;;13.44;53.36;99654.25;5073846;27;45367;-58
2022/04/22 07:11:28;;;;;;;;;14.00;14.00;;;;;13.48;53.16;99659.19;5085715;27;45600;-58
2022/04/22 07:13:56;;;;;;;;;15.50;13.75;;;;;13.33;53.55;99630.25;5065734;27;45759;-57
2022/04/22 07:16:22;;;;;;;;;14.75;13.75;;;;;13.19;53.65;99604.69;5065924;28;45548;-58
2022/04/22 07:18:48;;;;;;;;;20.25;18.00;;;;;13.52;53.50;99652.63;5070572;27;45453;-57
2022/04/22 07:21:14;;;;;;;;;17.00;15.00;;;;;13.42;52.93;99619.66;5070532;27;45530;-58
2022/04/22 07:23:40;;;;;;;;;20.25;18.00;;;;;13.52;53.75;99647.28;5071448;27;45454;-58
2022/04/22 07:26:09;;;;;;;;;17.25;15.00;;;;;13.62;53.91;99657.19;5067630;28;45504;-57
2022/04/22 07:28:37;;;;;;;;;14.50;14.50;;;;;13.51;52.57;99623.34;5068331;27;45651;-58
2022/04/22 07:31:04;;;;;;;;;8.75;8.75;;;;;13.77;52.64;99655.91;5053481;28;45700;-58
2022/04/22 07:33:31;;;;;;;;;18.25;17.25;;;;;13.67;52.36;99638.94;5074659;28;45380;-59
2022/04/22 07:35:57;;;;;;;;;14.00;13.75;;;;;13.78;52.60;99652.25;5068987;27;45474;-60
2022/04/22 07:38:24;;;;;;;;;18.00;18.00;;;;;13.84;53.00;99657.09;5063524;28;45509;-58
2022/04/22 07:40:51;;;;;;;;;15.50;15.50;;;;;13.73;52.50;99641.13;5072951;28;45219;-58
2022/04/22 07:48:53;;;;;;;;;17.00;17.00;;;;;13.93;52.79;99632.25;5077923;27;45378;-57
2022/04/22 07:51:19;;;;;;;;;24.75;17.00;;;;;14.01;52.40;99637.78;5076347;28;45441;-57
2022/04/22 07:53:45;;;;;;;;;21.75;20.00;;;;;14.02;52.54;99630.63;5077621;27;46176;-56
2022/04/22 07:56:10;;;;;;;;;16.33;14.67;;;;;14.06;51.83;99635.59;5078265;28;45508;-58
2022/04/22 07:58:36;;;;;;;;;16.67;15.33;;;;;14.08;52.35;99628.28;5078317;28;45883;-58
2022/04/22 08:01:02;;;;;;;;;12.75;11.50;;;;;14.17;51.91;99638.16;5076251;28;45522;-57
2022/04/22 08:03:28;;;;;;;;;19.25;15.50;;;;;14.26;51.45;99646.38;5076717;27;45457;-58
2022/04/22 08:05:54;;;;;;;;;21.00;15.25;;;;;14.25;51.31;99629.50;5079138;27;45262;-59
2022/04/22 08:08:19;;;;;;;;;17.25;16.00;;;;;14.24;51.16;99621.63;5079056;27;45421;-57
2022/04/22 08:10:45;;;;;;;;;18.75;16.00;;;;;14.26;51.45;99617.81;5076639;27;45384;-58
2022/04/22 08:13:11;;;;;;;;;16.67;16.67;;;;;14.45;51.44;99646.50;5077656;27;45531;-58
2022/04/22 08:15:40;;;;;;;;;12.75;12.75;;;;;14.55;51.20;99642.06;5079567;27;45409;-58
2022/04/22 08:18:06;;;;;;;;;17.00;15.00;;;;;14.58;51.04;99635.59;5078439;27;45512;-57
2022/04/22 08:20:33;;;;;;;;;16.00;14.33;;;;;14.65;50.28;99626.03;5078791;27;45527;-58
2022/04/22 08:22:59;;;;;;;;;17.67;17.00;;;;;14.78;50.18;99639.19;5076559;28;45979;-57
2022/04/22 08:25:26;;;;;;;;;20.33;18.33;;;;;14.79;50.19;99632.84;5076260;27;45459;-60
2022/04/22 08:27:51;;;;;;;;;15.67;13.33;;;;;14.82;50.14;99612.00;5078675;27;45322;-58
2022/04/22 08:30:17;;;;;;;;;18.00;17.00;;;;;14.92;48.96;99617.38;5078987;27;45684;-58
2022/04/22 08:32:44;;;;;;;;;14.33;12.00;;;;;15.19;48.48;99630.97;5079211;28;45230;-58
2022/04/22 08:35:10;;;;;;;;;15.67;13.00;;;;;15.46;48.38;99616.06;5077716;27;45258;-57
2022/04/22 08:37:37;;;;;;;;;13.33;12.67;;;;;15.77;47.25;99614.97;5077118;27;45388;-58
2022/04/22 08:40:07;;;;;;;;;13.67;13.67;;;;;16.08;45.83;99609.38;5071889;27;45838;-58
2022/04/22 08:42:35;;;;;;;;;13.00;13.00;;;;;16.13;46.24;99569.56;5075242;27;45568;-57
2022/04/22 08:45:01;;;;;;;;;20.33;17.00;;;;;16.63;45.35;99601.41;5078843;27;45300;-56
2022/04/22 08:50:13;;;;;;;;;12.67;12.67;;;;;17.21;44.00;99585.00;5076047;28;45403;-57
2022/04/22 08:52:42;;;;;;;;;19.00;14.00;;;;;17.47;42.00;99588.59;5089441;27;48099;-56
2022/04/22 08:55:09;;;;;;;;;15.00;13.00;;;;;17.63;42.01;99601.34;5075869;27;45411;-60
2022/04/22 08:57:35;;;;;;;;;11.67;11.67;;;;;17.84;41.95;99587.56;5076153;27;45550;-62
2022/04/22 09:00:04;;;;;;;;;28.67;26.00;;;;;18.19;41.85;99598.25;5076291;27;46307;-57
2022/04/22 09:02:30;;;;;;;;;13.33;13.33;;;;;18.45;40.52;99586.63;5074715;27;46489;-57
2022/04/22 09:04:56;;;;;;;;;10.67;10.67;;;;;18.60;39.21;99589.53;5074443;27;45461;-57
2022/04/22 09:07:26;;;;;;;;;12.67;12.67;;;;;18.84;38.92;99581.59;5077788;28;45270;-57
2022/04/22 09:09:52;;;;;;;;;12.00;11.67;;;;;19.05;39.28;99573.06;5060375;27;45549;-58
2022/04/22 09:12:19;;;;;;;;;9.00;9.00;;;;;19.44;38.82;99595.72;5075172;27;45855;-57
2022/04/22 09:14:47;;;;;;;;;11.67;11.67;;;;;19.66;38.24;99588.00;5077979;28;45548;-57
2022/04/22 09:17:30;;;;;;;;;11.33;9.00;;;;;20.02;38.39;99583.91;5076813;27;45405;-56
2022/04/22 09:20:00;;;;;;;;;17.00;13.67;;;;;20.23;37.15;99558.25;5076706;28;45536;-60
2022/04/22 09:22:28;;;;;;;;;9.33;9.33;;;;;20.58;36.94;99579.44;5078658;27;47154;-59
2022/04/22 09:24:58;;;;;;;;;8.67;8.67;;;;;20.77;35.98;99580.03;5065175;28;45539;-58
2022/04/22 09:27:37;;;;;;;;;10.67;10.67;;;;;21.03;34.65;99571.59;5078496;27;45178;-60
2022/04/22 09:30:07;;;;;;;;;11.00;10.00;;;;;21.32;34.80;99576.34;5077560;27;45370;-59
2022/04/22 09:32:34;;;;;;;;;12.00;11.67;;;;;21.57;34.89;99549.97;5075842;28;46685;-58
2022/04/22 09:35:16;;;;;;;;;10.67;10.00;;;;;21.58;32.88;99536.25;5070705;27;45355;-59
2022/04/22 09:43:37;;;;;;;;;7.00;7.00;;;;;22.12;32.17;99551.50;5077209;28;45356;-61
2022/04/22 09:46:03;;;;;;;;;8.00;7.67;;;;;22.29;31.99;99559.28;5078258;27;45516;-57
2022/04/22 09:48:56;;;;;;;;;10.67;9.67;;;;;22.44;32.31;99553.00;5093443;27;45488;-58
2022/04/22 09:51:34;;;;;;;;;9.33;7.33;;;;;22.59;31.25;99553.84;5076966;27;45597;-58
2022/04/22 09:54:00;;;;;;;;;10.33;9.33;;;;;22.64;31.55;99565.78;5093665;27;46989;-58
2022/04/22 09:56:26;;;;;;;;;10.67;9.00;;;;;22.67;30.66;99561.88;5078619;28;45394;-60
2022/04/22 09:58:51;;;;;;;;;12.00;11.00;;;;;22.70;30.66;99550.66;5094811;27;45836;-57
2022/04/22 10:01:17;;;;;;;;;10.00;8.67;;;;;22.71;31.10;99544.19;5078280;27;45511;-58
2022/04/22 10:03:42;;;;;;;;;12.00;12.00;;;;;22.68;30.17;99552.72;5077708;27;45356;-59
2022/04/22 10:06:08;;;;;;;;;10.67;9.00;;;;;22.44;30.78;99539.47;5077856;27;45177;-58
2022/04/22 10:08:39;;;;;;;;;9.67;9.67;;;;;22.46;29.77;99543.66;5077735;27;45231;-58
2022/04/22 10:11:05;;;;;;;;;7.33;7.33;;;;;22.39;30.95;99548.13;5077763;27;45497;-59
2022/04/22 10:13:42;;;;;;;;;7.00;7.00;;;;;22.34;31.15;99546.00;5076998;27;46331;-58
2022/04/22 10:16:11;;;;;;;;;7.00;7.00;;;;;22.02;30.98;99546.34;5077101;27;45295;-59
2022/04/22 10:18:42;;;;;;;;;15.00;12.67;;;;;21.71;31.11;99541.88;5076319;27;45445;-60
2022/04/22 10:21:08;;;;;;;;;6.00;6.00;;;;;21.42;31.18;99539.94;5077959;27;45589;-59
2022/04/22 10:23:36;;;;;;;;;5.33;5.33;;;;;21.10;32.41;99546.41;5077031;27;45330;-59
2022/04/22 10:26:04;;;;;;;;;7.67;7.67;;;;;20.87;32.83;99546.38;5077451;28;45440;-60
2022/04/22 10:28:31;;;;;;;;;7.00;6.67;;;;;20.66;32.91;99532.63;5077761;27;45488;-60
2022/04/22 10:31:00;;;;;;;;;7.00;5.33;;;;;20.47;33.13;99536.59;5077857;27;45651;-59
2022/04/22 10:33:37;;;;;;;;;10.33;8.00;;;;;20.22;33.02;99529.56;5076840;27;45506;-59
2022/04/22 10:36:05;;;;;;;;;10.67;10.67;;;;;20.14;33.13;99525.03;5075584;28;45453;-61
2022/04/22 10:38:39;;;;;;;;;9.67;7.67;;;;;20.13;33.67;99526.03;5077141;27;45386;-61
2022/04/22 10:41:16;;;;;;;;;5.33;5.33;;;;;20.02;33.81;99526.41;5075993;28;45404;-59
2022/04/22 10:43:42;;;;;;;;;6.33;6.33;;;;;19.95;32.87;99534.38;5065481;28;45347;-60
2022/04/22 10:49:13;;;;;;;;;8.00;6.67;;;;;19.52;33.63;99521.22;5076899;28;45537;-58
2022/04/22 10:52:02;;;;;;;;;8.67;6.00;;;;;19.52;34.09;99537.38;5077246;27;45231;-59
2022/04/22 10:54:52;;;;;;;;;6.00;6.00;;;;;19.52;34.38;99532.00;5076214;28;45439;-58
2022/04/22 10:57:23;;;;;;;;;6.67;6.67;;;;;19.47;34.23;99528.97;5076766;27;45270;-58
2022/04/22 11:00:03;;;;;;;;;8.00;7.00;;;;;19.38;34.50;99526.25;5076464;27;45458;-59
2022/04/22 11:02:29;;;;;;;;;6.67;6.67;;;;;19.44;33.91;99519.38;5076343;27;45250;-58
2022/04/22 11:05:25;;;;;;;;;8.00;7.00;;;;;19.50;34.38;99526.78;5076460;27;46058;-59
2022/04/22 11:07:51;;;;;;;;;6.00;6.00;;;;;19.56;34.18;99511.81;5076454;27;45491;-58
2022/04/22 11:10:26;;;;;;;;;8.33;8.00;;;;;19.58;34.83;99512.50;5076272;27;45448;-59
2022/04/22 11:13:00;;;;;;;;;10.67;7.67;;;;;19.65;33.82;99508.09;5075188;28;45544;-57
2022/04/22 11:15:43;;;;;;;;;10.00;8.33;;;;;19.67;33.76;99515.03;5076469;27;45179;-58
2022/04/22 11:18:10;;;;;;;;;8.33;8.33;;;;;19.60;33.73;99505.91;5076583;27;45276;-59
2022/04/22 11:20:42;;;;;;;;;6.00;5.00;;;;;19.56;33.77;99498.34;5075572;27;45446;-58
2022/04/22 11:23:11;;;;;;;;;5.33;4.00;;;;;19.52;33.79;99500.47;5076682;27;45511;-58
2022/04/22 11:25:38;;;;;;;;;4.67;4.67;;;;;19.67;33.15;99506.09;5076398;27;45474;-60
2022/04/22 11:28:04;;;;;;;;;5.33;5.00;;;;;19.85;32.88;99498.63;5076303;27;45362;-59
2022/04/22 11:30:32;;;;;;;;;9.00;9.00;;;;;19.88;33.65;99500.97;5076265;27;45418;-58
2022/04/22 11:33:21;;;;;;;;;3.33;3.33;;;;;19.98;33.23;99501.63;5080751;27;45231;-57
2022/04/22 11:35:50;;;;;;;;;7.00;7.00;;;;;20.04;33.29;99494.69;5077226;27;46908;-59
2022/04/22 11:38:15;;;;;;;;;5.00;3.33;;;;;20.13;33.16;99484.72;5076828;27;45419;-58
2022/04/22 11:40:44;;;;;;;;;6.00;6.00;;;;;20.29;32.82;99490.03;5076421;27;45373;-58
2022/04/22 11:43:11;;;;;;;;;7.00;5.67;;;;;20.34;33.17;99482.28;5076645;27;45519;-58
2022/04/22 11:45:47;;;;;;;;;6.00;6.00;;;;;20.34;33.02;99490.38;5075910;27;46050;-58
2022/04/22 11:48:17;;;;;;;;;7.00;7.00;;;;;20.35;32.83;99489.34;5076127;27;45986;-57
2022/04/22 11:50:45;;;;;;;;;8.33;8.33;;;;;20.42;32.69;99487.66;5075966;27;45290;-58
2022/04/22 11:53:18;;;;;;;;;7.00;7.00;;;;;20.52;32.65;99482.03;5076431;27;45240;-58
2022/04/22 11:55:45;;;;;;;;;11.00;7.00;;;;;20.71;32.89;99494.28;5075425;27;46168;-58
2022/04/22 11:58:11;;;;;;;;;9.67;8.67;;;;;20.76;31.98;99473.81;5074440;28;45264;-58
2022/04/22 12:06:14;;;;;;;;;7.67;6.00;;;;;21.00;31.74;99475.50;5075704;27;45269;-58
2022/04/22 12:08:54;;;;;;;;;5.00;5.00;;;;;21.16;31.69;99477.25;5075744;27;45251;-57
2022/04/22 12:11:20;;;;;;;;;6.00;5.00;;;;;21.07;32.36;99465.63;5074583;28;45379;-58
2022/04/22 12:13:47;;;;;;;;;7.00;6.00;;;;;21.15;32.63;99467.44;5074873;28;45571;-58
2022/04/22 12:16:18;;;;;;;;;6.00;6.00;;;;;21.37;31.92;99465.78;5074692;28;46338;-58
2022/04/22 12:18:46;;;;;;;;;7.00;7.00;;;;;21.34;31.21;99474.25;5075670;28;45782;-58
2022/04/22 12:21:15;;;;;;;;;6.67;6.00;;;;;21.37;31.20;99471.19;5077639;27;45329;-59